createdAt,value
2022-08-29T00:01:13.353Z,99569.47
2022-08-29T00:03:41.127Z,99566.03
2022-08-29T00:06:10.805Z,99572.75
2022-08-29T00:08:38.026Z,99572.31
2022-08-29T00:11:06.824Z,99574.53
2022-08-29T00:13:50.087Z,99569.69
2022-08-29T00:16:18.970Z,99562.12
2022-08-29T00:18:46.232Z,99570.28
2022-08-29T00:21:13.449Z,99565.06
2022-08-29T00:23:41.003Z,99572.50
2022-08-29T00:26:08.230Z,99571.22
2022-08-29T00:28:35.749Z,99568.59
2022-08-29T00:31:03.416Z,99573.09
2022-08-29T00:33:30.711Z,99566.16
2022-08-29T00:35:58.024Z,99569.59
2022-08-29T00:38:27.997Z,99577.62
2022-08-29T00:40:56.709Z,99574.16
2022-08-29T00:43:25.625Z,99581.37
2022-08-29T00:45:59.298Z,99583.47
2022-08-29T00:48:26.623Z,99581.97
2022-08-29T00:51:00.945Z,99582.69
2022-08-29T00:53:29.817Z,99587.13
2022-08-29T00:55:57.297Z,99581.34
2022-08-29T00:58:26.640Z,99579.94
2022-08-29T01:00:54.182Z,99584.56
2022-08-29T01:03:21.779Z,99592.84
2022-08-29T01:05:49.052Z,99588.34
2022-08-29T01:08:16.367Z,99595.56
2022-08-29T01:11:02.887Z,99577.84
2022-08-29T01:13:34.660Z,99587.78
2022-08-29T01:16:04.171Z,99588.34
2022-08-29T01:18:32.447Z,99588.94
2022-08-29T01:21:05.689Z,99588.97
2022-08-29T01:23:40.574Z,99591.94
2022-08-29T01:26:08.385Z,99589.91
2022-08-29T01:28:37.295Z,99599.94
2022-08-29T01:31:09.718Z,99598.88
2022-08-29T01:33:43.528Z,99597.19
2022-08-29T01:36:12.331Z,99600.41
2022-08-29T01:38:39.818Z,99604.28
2022-08-29T01:41:07.180Z,99594.44
2022-08-29T01:43:38.666Z,99596.03
2022-08-29T01:46:06.274Z,99594.59
2022-08-29T01:48:33.518Z,99593.88
2022-08-29T01:51:00.753Z,99592.13
2022-08-29T01:53:28.276Z,99588.00
2022-08-29T01:55:55.535Z,99592.13
2022-08-29T01:58:22.789Z,99591.78
2022-08-29T02:00:50.583Z,99603.28
2022-08-29T02:03:18.798Z,99605.00
2022-08-29T02:05:47.645Z,99601.09
2022-08-29T02:08:15.085Z,99603.91
2022-08-29T02:10:42.671Z,99597.75
2022-08-29T02:13:10.435Z,99596.37
2022-08-29T02:15:37.618Z,99592.50
2022-08-29T02:18:05.258Z,99588.16
2022-08-29T02:20:32.779Z,99585.50
2022-08-29T02:23:00.367Z,99591.16
2022-08-29T02:25:43.786Z,99587.69
2022-08-29T02:28:15.279Z,99583.75
2022-08-29T02:30:45.196Z,99582.87
2022-08-29T02:33:17.592Z,99586.16
2022-08-29T02:35:48.296Z,99573.09
2022-08-29T02:38:16.232Z,99574.87
2022-08-29T02:40:44.413Z,99576.84
2022-08-29T02:43:12.859Z,99579.63
2022-08-29T02:45:41.426Z,99573.75
2022-08-29T02:48:09.509Z,99587.16
2022-08-29T02:50:42.999Z,99586.59
2022-08-29T02:53:11.643Z,99576.88
2022-08-29T02:55:39.895Z,99570.53
2022-08-29T02:58:07.649Z,99582.06
2022-08-29T03:00:35.986Z,99582.41
2022-08-29T03:03:04.818Z,99583.03
2022-08-29T03:05:34.974Z,99586.34
2022-08-29T03:08:05.638Z,99587.44
2022-08-29T03:10:34.079Z,99589.22
2022-08-29T03:13:01.860Z,99589.94
2022-08-29T03:15:29.284Z,99588.19
2022-08-29T03:17:57.143Z,99595.22
2022-08-29T03:20:24.883Z,99597.16
2022-08-29T03:22:54.197Z,99596.72
2022-08-29T03:25:23.804Z,99597.72
2022-08-29T03:27:52.959Z,99602.91
2022-08-29T03:30:20.995Z,99610.25
2022-08-29T03:32:51.766Z,99607.19
2022-08-29T03:35:20.081Z,99611.38
2022-08-29T03:37:47.567Z,99615.94
2022-08-29T03:40:16.910Z,99616.59
2022-08-29T03:42:44.617Z,99622.16
2022-08-29T03:45:15.038Z,99617.56
2022-08-29T03:47:42.780Z,99625.66
2022-08-29T03:50:13.144Z,99625.88
2022-08-29T03:52:43.383Z,99620.37
2022-08-29T03:55:14.376Z,99623.72
2022-08-29T03:57:42.115Z,99639.31
2022-08-29T04:00:16.140Z,99642.72
2022-08-29T04:02:46.639Z,99643.66
2022-08-29T04:05:16.837Z,99649.59
2022-08-29T04:07:51.085Z,99650.22
2022-08-29T04:10:25.924Z,99649.34
2022-08-29T04:12:55.115Z,99662.47
2022-08-29T04:15:24.423Z,99656.44
2022-08-29T04:17:57.652Z,99657.09
2022-08-29T04:20:28.836Z,99652.84
2022-08-29T04:22:57.717Z,99652.72
2022-08-29T04:25:27.866Z,99651.63
2022-08-29T04:27:56.244Z,99655.44
2022-08-29T04:30:25.473Z,99656.06
2022-08-29T04:32:52.952Z,99661.75
2022-08-29T04:35:21.209Z,99666.13
2022-08-29T04:37:49.363Z,99669.16
2022-08-29T04:40:19.457Z,99671.53
2022-08-29T04:42:47.399Z,99673.81
2022-08-29T04:45:18.000Z,99668.38
2022-08-29T04:47:46.053Z,99668.13
2022-08-29T04:50:16.470Z,99674.59
2022-08-29T04:52:44.108Z,99678.34
2022-08-29T04:55:12.329Z,99678.72
2022-08-29T04:57:40.180Z,99683.69
2022-08-29T05:00:13.022Z,99676.84
2022-08-29T05:02:42.295Z,99685.59
2022-08-29T05:05:11.483Z,99677.00
2022-08-29T05:07:38.972Z,99670.97
2022-08-29T05:10:13.661Z,99680.03
2022-08-29T05:12:41.242Z,99669.12
2022-08-29T05:15:10.200Z,99682.06
2022-08-29T05:17:37.645Z,99681.16
2022-08-29T05:20:07.416Z,99680.16
2022-08-29T05:22:35.326Z,99679.66
2022-08-29T05:25:04.968Z,99684.97
2022-08-29T05:27:32.653Z,99688.31
2022-08-29T05:30:01.283Z,99698.19
2022-08-29T05:32:28.702Z,99699.25
2022-08-29T05:34:56.162Z,99693.53
2022-08-29T05:37:23.889Z,99684.69
2022-08-29T05:39:51.655Z,99691.13
2022-08-29T05:42:22.223Z,99699.84
2022-08-29T05:44:50.334Z,99695.59
2022-08-29T05:47:19.158Z,99696.22
2022-08-29T05:49:48.011Z,99705.00
2022-08-29T05:52:18.089Z,99706.38
2022-08-29T05:54:46.008Z,99700.94
2022-08-29T05:57:19.152Z,99704.50
2022-08-29T05:59:49.053Z,99708.59
2022-08-29T06:02:17.950Z,99706.16
2022-08-29T06:04:46.055Z,99709.22
2022-08-29T06:07:13.724Z,99710.25
2022-08-29T06:09:42.099Z,99710.72
2022-08-29T06:12:11.273Z,99714.19
2022-08-29T06:14:38.756Z,99718.09
2022-08-29T06:17:08.631Z,99719.34
2022-08-29T06:19:39.595Z,99723.59
2022-08-29T06:22:09.889Z,99728.16
2022-08-29T06:24:39.324Z,99727.84
2022-08-29T06:27:07.163Z,99735.84
2022-08-29T06:29:43.278Z,99737.09
2022-08-29T06:32:12.934Z,99741.34
2022-08-29T06:34:40.506Z,99736.34
2022-08-29T06:37:07.944Z,99740.88
2022-08-29T06:39:35.775Z,99744.34
2022-08-29T06:42:03.322Z,99757.78
2022-08-29T06:44:31.980Z,99742.00
2022-08-29T06:46:59.970Z,99756.94
2022-08-29T06:49:27.876Z,99759.50
2022-08-29T06:51:58.223Z,99768.19
2022-08-29T06:54:28.005Z,99767.16
2022-08-29T06:56:57.026Z,99761.00
2022-08-29T06:59:24.933Z,99758.81
2022-08-29T07:01:54.444Z,99766.44
2022-08-29T07:04:21.909Z,99765.31
2022-08-29T07:06:50.590Z,99760.66
2022-08-29T07:09:18.413Z,99760.97
2022-08-29T07:11:45.881Z,99761.12
2022-08-29T07:14:13.606Z,99758.53
2022-08-29T07:16:41.742Z,99751.28
2022-08-29T07:19:10.361Z,99756.38
2022-08-29T07:21:38.842Z,99764.78
2022-08-29T07:24:07.282Z,99756.50
2022-08-29T07:26:38.946Z,99761.34
2022-08-29T07:29:11.143Z,99759.28
2022-08-29T07:31:39.277Z,99765.91
2022-08-29T07:34:07.856Z,99761.34
2022-08-29T07:36:36.280Z,99773.66
2022-08-29T07:39:07.106Z,99755.19
2022-08-29T07:41:35.085Z,99761.00
2022-08-29T07:44:02.777Z,99770.00
2022-08-29T07:46:31.578Z,99771.28
2022-08-29T07:48:59.966Z,99766.28
2022-08-29T07:51:27.997Z,99771.63
2022-08-29T07:53:56.793Z,99771.16
2022-08-29T07:56:28.719Z,99772.94
2022-08-29T07:58:57.361Z,99779.47
2022-08-29T08:01:26.240Z,99773.75
2022-08-29T08:03:54.365Z,99768.94
2022-08-29T08:06:24.071Z,99765.84
2022-08-29T08:08:56.420Z,99774.72
2022-08-29T08:11:25.121Z,99770.69
2022-08-29T08:13:54.143Z,99780.13
2022-08-29T08:16:24.398Z,99780.97
2022-08-29T08:18:52.689Z,99783.25
2022-08-29T08:21:20.174Z,99785.28
2022-08-29T08:23:48.414Z,99778.19
2022-08-29T08:26:16.468Z,99792.03
2022-08-29T08:28:44.341Z,99783.72
2022-08-29T08:31:14.282Z,99790.13
2022-08-29T08:33:42.795Z,99783.00
2022-08-29T08:36:17.800Z,99794.50
2022-08-29T08:38:45.897Z,99792.44
2022-08-29T08:41:17.897Z,99787.84
2022-08-29T08:43:57.213Z,99780.84
2022-08-29T08:46:36.597Z,99776.62
2022-08-29T08:49:08.628Z,99787.94
2022-08-29T08:51:39.222Z,99786.94
2022-08-29T08:54:12.328Z,99791.66
2022-08-29T08:56:48.076Z,99794.75
2022-08-29T08:59:31.552Z,99792.22
2022-08-29T09:02:07.153Z,99787.56
2022-08-29T09:04:58.513Z,99799.28
2022-08-29T09:07:46.000Z,99798.88
2022-08-29T09:10:58.737Z,99789.69
2022-08-29T09:13:43.922Z,99784.12
2022-08-29T09:16:25.236Z,99786.75
2022-08-29T09:18:54.206Z,99784.03
2022-08-29T09:21:40.696Z,99784.03
2022-08-29T09:24:39.385Z,99780.75
2022-08-29T09:27:09.070Z,99786.69
2022-08-29T09:29:37.458Z,99785.66
2022-08-29T09:32:11.187Z,99780.19
2022-08-29T09:35:10.200Z,99777.34
2022-08-29T09:37:35.021Z,99781.31
2022-08-29T09:40:11.093Z,99786.88
2022-08-29T09:42:41.871Z,99776.94
2022-08-29T09:45:21.984Z,99781.63
2022-08-29T09:47:49.668Z,99782.78
2022-08-29T09:50:17.612Z,99786.88
2022-08-29T09:52:58.947Z,99797.25
2022-08-29T09:55:37.365Z,99789.50
2022-08-29T09:58:18.386Z,99777.25
2022-08-29T10:01:07.479Z,99783.53
2022-08-29T10:03:40.519Z,99781.22
2022-08-29T10:06:25.705Z,99783.53
2022-08-29T10:09:06.938Z,99784.03
2022-08-29T10:11:56.509Z,99796.63
2022-08-29T10:14:37.444Z,99785.19
2022-08-29T10:17:47.066Z,99779.56
2022-08-29T10:20:15.259Z,99799.84
2022-08-29T10:22:47.533Z,99797.75
2022-08-29T10:25:16.266Z,99792.81
2022-08-29T10:27:51.754Z,99796.91
2022-08-29T10:31:04.655Z,99804.91
2022-08-29T10:33:47.332Z,99795.63
2022-08-29T10:36:23.167Z,99794.84
2022-08-29T10:38:51.227Z,99798.09
2022-08-29T10:41:31.682Z,99802.16
2022-08-29T10:47:11.290Z,99786.53
2022-08-29T10:50:21.886Z,99787.09
2022-08-29T10:53:14.675Z,99795.72
2022-08-29T10:56:00.235Z,99788.25
2022-08-29T10:58:58.082Z,99787.28
2022-08-29T11:01:31.278Z,99782.91
2022-08-29T11:04:08.589Z,99766.16
2022-08-29T11:06:43.349Z,99777.31
2022-08-29T11:09:16.519Z,99779.94
2022-08-29T11:11:59.133Z,99769.62
2022-08-29T11:14:33.453Z,99768.81
2022-08-29T11:17:04.855Z,99773.75
2022-08-29T11:19:56.756Z,99779.53
2022-08-29T11:22:34.539Z,99762.38
2022-08-29T11:25:14.868Z,99762.63
2022-08-29T11:28:10.115Z,99759.25
2022-08-29T11:31:06.604Z,99763.63
2022-08-29T11:33:47.667Z,99763.16
2022-08-29T11:36:46.993Z,99754.47
2022-08-29T11:39:48.146Z,99755.53
2022-08-29T11:42:49.950Z,99760.81
2022-08-29T11:45:06.912Z,99752.19
2022-08-29T11:47:40.772Z,99757.03
2022-08-29T11:50:14.793Z,99759.19
2022-08-29T11:53:08.806Z,99749.81
2022-08-29T11:55:42.230Z,99761.44
2022-08-29T11:58:15.829Z,99749.31
2022-08-29T12:00:46.673Z,99747.41
2022-08-29T12:03:33.149Z,99751.50
2022-08-29T12:06:52.642Z,99754.44
2022-08-29T12:09:31.930Z,99747.91
2022-08-29T12:11:59.552Z,99746.91
2022-08-29T12:14:39.600Z,99748.56
2022-08-29T12:17:17.439Z,99749.94
2022-08-29T12:20:00.849Z,99750.53
2022-08-29T12:22:54.332Z,99750.84
2022-08-29T12:25:28.456Z,99737.75
2022-08-29T12:28:06.041Z,99731.97
2022-08-29T12:30:42.789Z,99734.44
2022-08-29T12:33:21.694Z,99730.88
2022-08-29T12:36:14.599Z,99731.69
2022-08-29T12:39:09.561Z,99728.97
2022-08-29T12:41:55.780Z,99726.25
2022-08-29T12:44:36.683Z,99726.19
2022-08-29T12:47:13.695Z,99717.94
2022-08-29T12:49:48.520Z,99722.88
2022-08-29T12:52:27.312Z,99723.16
2022-08-29T12:54:57.371Z,99719.31
2022-08-29T12:57:30.154Z,99715.97
2022-08-29T12:59:58.215Z,99710.19
2022-08-29T13:02:35.791Z,99703.03
2022-08-29T13:05:26.865Z,99698.22
2022-08-29T13:08:09.615Z,99697.56
2022-08-29T13:10:51.924Z,99701.44
2022-08-29T13:13:22.783Z,99696.81
2022-08-29T13:15:51.816Z,99694.50
2022-08-29T13:18:19.803Z,99697.53
2022-08-29T13:21:01.531Z,99693.41
2022-08-29T13:23:35.376Z,99696.41
2022-08-29T13:26:09.252Z,99689.03
2022-08-29T13:28:43.481Z,99688.31
2022-08-29T13:31:17.940Z,99687.75
2022-08-29T13:33:48.102Z,99685.16
2022-08-29T13:36:28.141Z,99691.03
2022-08-29T13:39:18.045Z,99681.47
2022-08-29T13:41:52.700Z,99678.12
2022-08-29T13:44:51.233Z,99675.66
2022-08-29T13:47:39.056Z,99670.19
2022-08-29T13:50:10.309Z,99682.03
2022-08-29T13:52:38.713Z,99678.03
2022-08-29T13:55:08.261Z,99668.34
2022-08-29T13:57:36.292Z,99681.03
2022-08-29T14:00:06.523Z,99677.97
2022-08-29T14:02:34.667Z,99680.47
2022-08-29T14:05:02.562Z,99670.25
2022-08-29T14:07:31.149Z,99669.19
2022-08-29T14:09:58.884Z,99666.50
2022-08-29T14:12:33.600Z,99668.91
2022-08-29T14:15:06.715Z,99669.97
2022-08-29T14:17:40.251Z,99673.50
2022-08-29T14:20:09.914Z,99667.81
2022-08-29T14:22:38.161Z,99669.16
2022-08-29T14:25:07.956Z,99666.75
2022-08-29T14:27:35.946Z,99666.47
2022-08-29T14:30:06.077Z,99667.59
2022-08-29T14:32:33.593Z,99672.00
2022-08-29T14:35:01.076Z,99666.34
2022-08-29T14:37:28.916Z,99668.66
2022-08-29T14:39:56.582Z,99659.66
2022-08-29T14:42:25.741Z,99671.16
2022-08-29T14:44:53.576Z,99665.06
2022-08-29T14:47:21.055Z,99667.69
2022-08-29T14:49:48.518Z,99662.59
2022-08-29T14:52:16.610Z,99668.34
2022-08-29T14:54:44.177Z,99656.91
2022-08-29T14:57:12.439Z,99664.50
2022-08-29T14:59:40.980Z,99653.69
2022-08-29T15:02:10.013Z,99658.50
2022-08-29T15:04:38.107Z,99665.13
2022-08-29T15:07:12.211Z,99659.13
2022-08-29T15:09:42.003Z,99662.41
2022-08-29T15:12:12.095Z,99669.59
2022-08-29T15:14:39.972Z,99664.63
2022-08-29T15:17:08.001Z,99659.91
2022-08-29T15:20:31.804Z,99661.09
2022-08-29T15:22:26.547Z,99658.09
2022-08-29T15:24:54.469Z,99653.72
2022-08-29T15:27:27.321Z,99662.47
2022-08-29T15:29:57.162Z,99659.78
2022-08-29T15:32:25.191Z,99647.97
2022-08-29T15:34:52.647Z,99655.63
2022-08-29T15:37:20.607Z,99645.16
2022-08-29T15:39:49.992Z,99645.47
2022-08-29T15:42:28.600Z,99642.19
2022-08-29T15:44:58.170Z,99644.94
2022-08-29T15:47:26.449Z,99656.44
2022-08-29T15:49:54.874Z,99663.53
2022-08-29T15:52:22.372Z,99661.94
2022-08-29T15:54:50.162Z,99655.28
2022-08-29T15:57:17.757Z,99655.19
2022-08-29T16:00:00.470Z,99654.12
2022-08-29T16:02:29.033Z,99647.53
2022-08-29T16:04:57.569Z,99646.75
2022-08-29T16:07:29.286Z,99648.88
2022-08-29T16:10:00.265Z,99645.31
2022-08-29T16:12:31.415Z,99650.44
2022-08-29T16:15:01.024Z,99657.66
2022-08-29T16:17:31.584Z,99650.78
2022-08-29T16:20:01.246Z,99650.06
2022-08-29T16:22:29.516Z,99645.00
2022-08-29T16:24:57.516Z,99640.97
2022-08-29T16:27:26.014Z,99644.03
2022-08-29T16:29:54.180Z,99642.06
2022-08-29T16:32:21.967Z,99642.31
2022-08-29T16:34:51.405Z,99643.87
2022-08-29T16:37:19.300Z,99649.66
2022-08-29T16:39:46.986Z,99651.53
2022-08-29T16:42:14.959Z,99659.72
2022-08-29T16:44:42.527Z,99650.56
2022-08-29T16:47:11.261Z,99657.75
2022-08-29T16:49:39.317Z,99659.47
2022-08-29T16:52:07.346Z,99662.03
2022-08-29T16:54:34.793Z,99672.09
2022-08-29T16:57:02.815Z,99672.53
2022-08-29T16:59:30.305Z,99676.94
2022-08-29T17:01:57.878Z,99682.06
2022-08-29T17:04:27.995Z,99677.78
2022-08-29T17:06:56.481Z,99683.47
2022-08-29T17:09:25.156Z,99688.72
2022-08-29T17:11:54.271Z,99689.56
2022-08-29T17:14:25.384Z,99690.84
2022-08-29T17:16:54.738Z,99694.38
2022-08-29T17:19:23.516Z,99706.38
2022-08-29T17:21:51.245Z,99701.41
2022-08-29T17:24:19.936Z,99708.50
2022-08-29T17:26:49.059Z,99699.44
2022-08-29T17:29:16.903Z,99701.75
2022-08-29T17:31:44.769Z,99702.81
2022-08-29T17:34:13.471Z,99703.75
2022-08-29T17:36:43.688Z,99707.31
2022-08-29T17:39:16.715Z,99705.13
2022-08-29T17:41:57.964Z,99705.44
2022-08-29T17:44:27.644Z,99703.28
2022-08-29T17:46:57.595Z,99712.00
2022-08-29T17:49:27.092Z,99729.69
2022-08-29T17:51:57.535Z,99722.19
2022-08-29T17:54:26.679Z,99724.69
2022-08-29T17:57:02.480Z,99734.06
2022-08-29T17:59:45.340Z,99738.88
2022-08-29T18:02:16.710Z,99743.19
2022-08-29T18:04:47.190Z,99754.94
2022-08-29T18:07:16.888Z,99754.69
2022-08-29T18:09:45.397Z,99758.56
2022-08-29T18:12:13.452Z,99760.03
2022-08-29T18:14:41.934Z,99765.66
2022-08-29T18:17:10.467Z,99756.97
2022-08-29T18:19:38.749Z,99763.56
2022-08-29T18:22:07.515Z,99760.50
2022-08-29T18:24:36.266Z,99770.03
2022-08-29T18:27:04.525Z,99763.00
2022-08-29T18:29:33.908Z,99767.50
2022-08-29T18:32:03.022Z,99759.63
2022-08-29T18:34:30.859Z,99770.97
2022-08-29T18:36:58.855Z,99769.47
2022-08-29T18:39:27.249Z,99771.78
2022-08-29T18:41:55.027Z,99774.56
2022-08-29T18:44:24.921Z,99789.66
2022-08-29T18:46:52.810Z,99785.78
2022-08-29T18:49:40.313Z,99792.50
2022-08-29T18:52:08.369Z,99783.03
2022-08-29T18:54:36.490Z,99783.19
2022-08-29T18:57:07.150Z,99783.66
2022-08-29T18:59:37.876Z,99790.00
2022-08-29T19:02:06.765Z,99793.00
2022-08-29T19:04:35.006Z,99791.00
2022-08-29T19:07:02.597Z,99788.16
2022-08-29T19:09:30.392Z,99796.91
2022-08-29T19:12:00.514Z,99797.25
2022-08-29T19:14:28.413Z,99794.94
2022-08-29T19:17:00.711Z,99799.09
2022-08-29T19:19:53.047Z,99799.00
2022-08-29T19:22:23.193Z,99803.69
2022-08-29T19:24:51.513Z,99796.59
2022-08-29T19:27:41.884Z,99797.31
2022-08-29T19:30:09.644Z,99800.16
2022-08-29T19:32:37.539Z,99796.75
2022-08-29T19:35:05.795Z,99816.78
2022-08-29T19:37:33.904Z,99811.84
2022-08-29T19:40:01.540Z,99820.50
2022-08-29T19:42:29.991Z,99823.78
2022-08-29T19:44:57.949Z,99821.34
2022-08-29T19:47:26.290Z,99812.13
2022-08-29T19:49:55.865Z,99813.69
2022-08-29T19:52:27.000Z,99818.50
2022-08-29T19:55:00.245Z,99817.69
2022-08-29T19:57:28.387Z,99811.28
2022-08-29T20:00:01.247Z,99815.94
2022-08-29T20:02:45.959Z,99824.31
2022-08-29T20:05:15.423Z,99817.56
2022-08-29T20:07:45.123Z,99819.19
2022-08-29T20:10:25.984Z,99817.09
2022-08-29T20:13:01.968Z,99820.09
2022-08-29T20:15:32.902Z,99816.97
2022-08-29T20:18:01.494Z,99816.22
2022-08-29T20:20:36.026Z,99817.44
2022-08-29T20:23:05.264Z,99816.63
2022-08-29T20:25:34.187Z,99823.59
2022-08-29T20:28:01.777Z,99825.28
2022-08-29T20:30:37.993Z,99827.34
2022-08-29T20:33:05.602Z,99817.87
2022-08-29T20:35:52.205Z,99820.94
2022-08-29T20:38:19.936Z,99815.63
2022-08-29T20:40:50.279Z,99819.31
2022-08-29T20:43:19.411Z,99829.91
2022-08-29T20:45:47.539Z,99829.62
2022-08-29T20:48:16.737Z,99829.81
2022-08-29T20:50:44.775Z,99832.06
2022-08-29T20:53:17.803Z,99824.88
2022-08-29T20:56:01.483Z,99825.34
2022-08-29T20:58:30.343Z,99831.63
2022-08-29T21:00:58.735Z,99828.28
2022-08-29T21:03:48.572Z,99829.59
2022-08-29T21:06:18.850Z,99827.81
2022-08-29T21:08:47.050Z,99825.56
2022-08-29T21:11:16.471Z,99815.50
2022-08-29T21:13:44.346Z,99826.47
2022-08-29T21:16:12.706Z,99819.28
2022-08-29T21:18:40.867Z,99820.88
2022-08-29T21:21:13.207Z,99823.78
2022-08-29T21:23:41.678Z,99815.78
2022-08-29T21:26:10.237Z,99811.84
2022-08-29T21:28:38.123Z,99820.91
2022-08-29T21:31:10.320Z,99807.91
2022-08-29T21:33:40.336Z,99817.66
2022-08-29T21:36:13.657Z,99822.31
2022-08-29T21:38:41.521Z,99823.06
2022-08-29T21:41:11.776Z,99815.66
2022-08-29T21:43:40.088Z,99818.44
2022-08-29T21:46:15.243Z,99811.53
2022-08-29T21:48:43.530Z,99821.72
2022-08-29T21:51:13.214Z,99823.41
2022-08-29T21:53:41.766Z,99826.16
2022-08-29T21:56:10.045Z,99834.09
2022-08-29T21:58:37.801Z,99832.75
2022-08-29T22:01:05.771Z,99832.16
2022-08-29T22:03:34.093Z,99829.81
2022-08-29T22:06:03.289Z,99835.56
2022-08-29T22:08:31.412Z,99833.06
2022-08-29T22:11:13.730Z,99833.22
2022-08-29T22:13:41.538Z,99836.69
2022-08-29T22:16:30.961Z,99834.88
2022-08-29T22:19:08.810Z,99834.28
2022-08-29T22:21:43.611Z,99836.84
2022-08-29T22:24:12.587Z,99836.25
2022-08-29T22:26:44.600Z,99832.41
2022-08-29T22:29:16.263Z,99832.41
2022-08-29T22:31:47.648Z,99837.31
2022-08-29T22:34:17.708Z,99845.22
2022-08-29T22:36:45.872Z,99841.37
2022-08-29T22:39:13.701Z,99850.78
2022-08-29T22:41:46.787Z,99847.34
2022-08-29T22:47:07.040Z,99845.75
2022-08-29T22:49:35.049Z,99848.63
2022-08-29T22:52:02.892Z,99853.66
2022-08-29T22:54:37.359Z,99858.25
2022-08-29T22:57:09.166Z,99855.19
2022-08-29T22:59:37.730Z,99865.16
2022-08-29T23:02:10.084Z,99862.25
2022-08-29T23:04:38.431Z,99868.81
2022-08-29T23:07:08.297Z,99875.06
2022-08-29T23:09:41.829Z,99871.25
2022-08-29T23:12:13.897Z,99874.38
2022-08-29T23:14:43.619Z,99872.91
2022-08-29T23:17:11.903Z,99871.97
2022-08-29T23:19:41.108Z,99863.81
2022-08-29T23:22:10.104Z,99877.03
2022-08-29T23:24:51.601Z,99870.56
2022-08-29T23:27:31.140Z,99881.28
2022-08-29T23:30:04.065Z,99876.69
2022-08-29T23:32:31.766Z,99873.19
2022-08-29T23:34:59.943Z,99881.13
2022-08-29T23:37:31.199Z,99885.59
2022-08-29T23:39:59.869Z,99886.66
2022-08-29T23:42:27.763Z,99891.22
2022-08-29T23:44:55.527Z,99890.06
2022-08-29T23:47:23.573Z,99885.72
2022-08-29T23:49:51.609Z,99881.22
2022-08-29T23:52:19.939Z,99882.62
2022-08-29T23:54:48.053Z,99883.94
2022-08-29T23:57:15.717Z,99884.66
